Time;durP1;ratioP1;P1;durP2;ratioP2;P2;SDS_P1;SDS_P2;PMS_P1;PMS_P2;Temp;Humidity;BMP_temperature;BMP_pressure;BME280_temperature;BME280_humidity;BME280_pressure;Samples;Min_cycle;Max_cycle;Signal;HPM_P1;HPM_P2
2021/08/31 00:01:12;;;;;;;2.40;1.30;;;16.10;81.60;;;;;;5043387;28;20052;-47
2021/08/31 00:03:56;;;;;;;2.58;1.30;;;16.10;81.60;;;;;;5043281;28;20060;-49
2021/08/31 00:06:40;;;;;;;2.72;1.52;;;16.20;81.70;;;;;;5043438;28;20032;-48
2021/08/31 00:09:25;;;;;;;3.15;1.27;;;16.20;81.70;;;;;;5043400;28;20044;-46
2021/08/31 00:12:09;;;;;;;3.40;1.42;;;16.10;81.80;;;;;;5043776;28;20024;-47
2021/08/31 00:14:53;;;;;;;2.30;1.50;;;16.20;81.70;;;;;;5043510;28;20075;-46
2021/08/31 00:17:38;;;;;;;2.30;1.65;;;16.20;81.80;;;;;;5043407;28;20036;-45
2021/08/31 00:20:22;;;;;;;2.45;1.90;;;16.10;81.80;;;;;;5043287;28;20037;-46
2021/08/31 00:23:07;;;;;;;3.00;2.20;;;16.20;81.90;;;;;;5043055;28;20069;-48
2021/08/31 00:25:53;;;;;;;4.25;2.30;;;16.20;81.80;;;;;;5043140;28;20101;-45
2021/08/31 00:28:37;;;;;;;3.22;2.30;;;16.20;81.80;;;;;;5043195;28;20036;-48
2021/08/31 00:31:21;;;;;;;5.55;2.47;;;16.20;81.80;;;;;;5043342;28;20101;-45
2021/08/31 00:34:06;;;;;;;3.92;2.53;;;16.20;81.80;;;;;;5043046;28;20044;-46
2021/08/31 00:36:50;;;;;;;5.10;2.70;;;16.20;81.70;;;;;;5043099;28;20052;-45
2021/08/31 00:39:34;;;;;;;4.78;3.30;;;16.20;81.60;;;;;;5042179;28;20044;-46
2021/08/31 00:42:18;;;;;;;4.15;2.92;;;16.20;81.60;;;;;;5043001;28;20025;-45
2021/08/31 00:45:03;;;;;;;4.28;2.92;;;16.20;81.50;;;;;;5043392;28;20098;-45
2021/08/31 00:47:47;;;;;;;5.13;3.10;;;16.20;81.40;;;;;;5042274;28;20036;-48
2021/08/31 00:50:32;;;;;;;5.60;3.15;;;16.20;81.30;;;;;;5043558;28;20052;-45
2021/08/31 00:53:16;;;;;;;5.07;3.05;;;16.20;81.30;;;;;;5044297;28;20083;-47
2021/08/31 00:56:00;;;;;;;5.05;3.38;;;16.20;81.50;;;;;;5046355;28;20217;-45
2021/08/31 00:58:44;;;;;;;5.40;3.63;;;16.20;81.50;;;;;;5045879;28;20348;-47
2021/08/31 01:01:28;;;;;;;4.63;3.33;;;16.20;81.50;;;;;;5046557;28;20354;-44
2021/08/31 01:04:12;;;;;;;4.78;3.70;;;16.20;81.60;;;;;;5046416;28;20056;-45
2021/08/31 01:06:58;;;;;;;6.00;4.30;;;16.20;81.70;;;;;;5046464;28;20033;-45
2021/08/31 01:09:42;;;;;;;5.05;4.05;;;16.20;81.70;;;;;;5046602;28;20261;-46
2021/08/31 01:12:27;;;;;;;7.63;4.93;;;16.20;81.80;;;;;;5045279;28;20100;-45
2021/08/31 01:15:13;;;;;;;6.47;4.20;;;16.20;81.80;;;;;;5045674;28;20076;-46
2021/08/31 01:17:57;;;;;;;6.47;4.53;;;16.30;81.80;;;;;;5046280;28;20083;-45
2021/08/31 01:20:42;;;;;;;5.47;4.32;;;16.20;81.90;;;;;;5046214;28;20075;-44
2021/08/31 01:23:29;;;;;;;6.28;4.50;;;16.30;81.80;;;;;;5046253;28;20033;-47
2021/08/31 01:26:14;;;;;;;8.35;4.47;;;16.20;81.90;;;;;;5046353;28;20205;-44
2021/08/31 01:29:02;;;;;;;6.45;4.57;;;16.20;81.80;;;;;;5046140;28;20083;-44
2021/08/31 01:31:46;;;;;;;7.10;4.88;;;16.30;81.80;;;;;;5046157;28;20033;-45
2021/08/31 01:34:30;;;;;;;9.77;4.97;;;16.20;81.90;;;;;;5045748;28;20355;-44
2021/08/31 01:37:14;;;;;;;7.30;5.13;;;16.20;81.90;;;;;;5045932;28;20179;-44
2021/08/31 01:39:58;;;;;;;7.38;4.75;;;16.20;81.90;;;;;;5045683;28;20029;-45
2021/08/31 01:42:43;;;;;;;7.07;4.68;;;16.20;81.90;;;;;;5045523;28;20029;-44
2021/08/31 01:45:27;;;;;;;9.43;5.03;;;16.30;81.90;;;;;;5045472;28;20025;-45
2021/08/31 01:48:11;;;;;;;7.22;5.03;;;16.20;82.00;;;;;;5046363;28;20059;-45
2021/08/31 01:50:56;;;;;;;7.20;5.05;;;16.20;81.90;;;;;;5045657;28;20071;-45
2021/08/31 01:53:40;;;;;;;6.65;5.05;;;16.20;81.90;;;;;;5045559;28;20255;-45
2021/08/31 01:56:24;;;;;;;7.03;4.63;;;16.20;81.90;;;;;;5045872;28;20213;-44
2021/08/31 01:59:08;;;;;;;7.05;4.95;;;16.20;82.00;;;;;;5045816;28;20057;-44
2021/08/31 02:01:53;;;;;;;6.10;4.60;;;16.20;82.00;;;;;;5045240;28;20032;-45
2021/08/31 02:04:37;;;;;;;6.75;4.80;;;16.20;82.00;;;;;;5044867;28;20039;-44
2021/08/31 02:07:21;;;;;;;6.22;4.78;;;16.20;82.00;;;;;;5045166;28;20036;-47
2021/08/31 02:10:06;;;;;;;7.13;5.13;;;16.20;81.90;;;;;;5045245;28;20214;-45
2021/08/31 02:12:50;;;;;;;7.05;5.03;;;16.20;82.00;;;;;;5045106;28;20220;-45
2021/08/31 02:15:34;;;;;;;9.63;5.63;;;16.20;82.00;;;;;;5044966;28;20209;-46
2021/08/31 02:18:19;;;;;;;7.45;4.63;;;16.20;82.00;;;;;;5043982;28;20072;-46
2021/08/31 02:21:03;;;;;;;9.60;5.03;;;16.20;81.80;;;;;;5045599;28;20248;-45
2021/08/31 02:23:47;;;;;;;8.55;5.10;;;16.20;82.00;;;;;;5044831;28;20088;-47
2021/08/31 02:26:33;;;;;;;8.68;5.90;;;16.20;81.90;;;;;;5045310;28;20351;-49
2021/08/31 02:29:17;;;;;;;6.65;5.10;;;16.20;81.90;;;;;;5045271;28;20205;-47
2021/08/31 02:32:03;;;;;;;8.68;5.43;;;16.30;81.90;;;;;;5044967;28;20033;-48
2021/08/31 02:34:47;;;;;;;9.95;5.32;;;16.30;81.90;;;;;;5045080;28;20091;-46
2021/08/31 02:37:31;;;;;;;10.85;5.75;;;16.30;81.90;;;;;;5044557;28;20029;-45
2021/08/31 02:40:16;;;;;;;7.63;5.28;;;16.30;81.90;;;;;;5044499;28;20036;-47
2021/08/31 02:43:00;;;;;;;8.27;5.63;;;16.30;81.90;;;;;;5044343;28;20339;-45
2021/08/31 02:45:44;;;;;;;9.93;5.10;;;16.30;81.90;;;;;;5044614;28;20035;-45
2021/08/31 02:48:29;;;;;;;6.78;5.40;;;16.30;81.80;;;;;;5044374;28;20070;-46
2021/08/31 02:51:13;;;;;;;9.65;5.78;;;16.30;81.70;;;;;;5044288;28;20352;-50
2021/08/31 02:53:57;;;;;;;7.93;5.45;;;16.30;81.80;;;;;;5044774;28;20079;-45
2021/08/31 02:56:41;;;;;;;8.73;6.00;;;16.20;81.80;;;;;;5044462;28;20040;-47
2021/08/31 02:59:25;;;;;;;7.68;5.40;;;16.20;81.80;;;;;;5044706;28;20104;-45
2021/08/31 03:02:10;;;;;;;7.20;4.90;;;16.20;81.80;;;;;;5044261;28;20359;-47
2021/08/31 03:04:54;;;;;;;7.82;5.28;;;16.20;81.80;;;;;;5044390;28;20212;-45
2021/08/31 03:07:38;;;;;;;8.27;5.00;;;16.30;81.80;;;;;;5044287;28;20114;-46
2021/08/31 03:10:23;;;;;;;11.02;5.47;;;16.30;81.80;;;;;;5044198;28;20056;-45
2021/08/31 03:13:08;;;;;;;8.18;5.15;;;16.30;81.70;;;;;;5043074;28;20305;-44
2021/08/31 03:15:52;;;;;;;8.23;5.10;;;16.30;81.50;;;;;;5043065;28;20028;-46
2021/08/31 03:18:36;;;;;;;7.13;4.75;;;16.20;81.40;;;;;;5043951;28;20036;-44
2021/08/31 03:21:21;;;;;;;7.80;4.95;;;16.20;81.30;;;;;;5043042;28;20226;-46
2021/08/31 03:24:05;;;;;;;8.57;5.45;;;16.20;81.20;;;;;;5044162;28;20347;-45
2021/08/31 03:26:49;;;;;;;7.85;4.95;;;16.20;81.20;;;;;;5044068;28;20029;-44
2021/08/31 03:29:33;;;;;;;9.00;5.47;;;16.20;81.10;;;;;;5044296;28;20166;-45
2021/08/31 03:32:18;;;;;;;9.40;6.13;;;16.20;81.10;;;;;;5044027;28;20133;-45
2021/08/31 03:35:02;;;;;;;9.20;5.75;;;16.20;81.10;;;;;;5044167;28;20036;-48
2021/08/31 03:37:46;;;;;;;7.55;4.93;;;16.20;81.20;;;;;;5043627;28;20356;-45
2021/08/31 03:40:31;;;;;;;7.38;5.15;;;16.20;81.30;;;;;;5044173;28;20028;-45
2021/08/31 03:43:15;;;;;;;6.15;4.55;;;16.20;81.20;;;;;;5043551;28;20036;-43
2021/08/31 03:45:59;;;;;;;6.78;4.43;;;16.10;81.10;;;;;;5043608;28;20059;-44
2021/08/31 03:48:43;;;;;;;5.75;4.03;;;16.20;81.10;;;;;;5043558;28;20032;-45
2021/08/31 03:51:28;;;;;;;6.75;4.47;;;16.10;80.90;;;;;;5043538;28;20325;-44
2021/08/31 03:54:12;;;;;;;7.53;4.47;;;16.20;80.80;;;;;;5043960;28;20127;-45
2021/08/31 03:56:56;;;;;;;5.88;4.32;;;16.20;80.70;;;;;;5043681;28;20117;-45
2021/08/31 03:59:40;;;;;;;6.95;4.40;;;16.20;80.60;;;;;;5043609;28;20267;-45
2021/08/31 04:02:25;;;;;;;8.23;4.32;;;16.20;80.70;;;;;;5043579;28;20048;-44
2021/08/31 04:05:09;;;;;;;7.47;4.57;;;16.10;80.80;;;;;;5043739;28;20037;-45
2021/08/31 04:07:54;;;;;;;8.73;4.88;;;16.10;80.70;;;;;;5043745;28;20127;-45
2021/08/31 04:10:38;;;;;;;7.00;4.60;;;16.20;80.60;;;;;;5043706;28;20031;-45
2021/08/31 04:13:22;;;;;;;7.18;5.13;;;16.20;80.60;;;;;;5043782;28;20072;-45
2021/08/31 04:16:07;;;;;;;5.85;4.60;;;16.10;80.60;;;;;;5043644;28;20027;-44
2021/08/31 04:18:51;;;;;;;7.15;4.45;;;16.10;80.70;;;;;;5043305;28;20032;-45
2021/08/31 04:21:35;;;;;;;7.47;5.18;;;16.10;80.80;;;;;;5043249;28;20032;-45
2021/08/31 04:24:19;;;;;;;7.18;5.30;;;16.20;80.90;;;;;;5042179;28;20085;-44
2021/08/31 04:27:04;;;;;;;8.07;5.43;;;16.10;80.90;;;;;;5044329;28;20098;-46
2021/08/31 04:29:48;;;;;;;8.13;5.60;;;16.10;80.80;;;;;;5047262;28;20071;-43
2021/08/31 04:32:32;;;;;;;7.57;5.20;;;16.10;81.10;;;;;;5047215;28;20071;-46
2021/08/31 04:35:17;;;;;;;8.02;5.38;;;16.10;81.00;;;;;;5047444;28;20029;-45
2021/08/31 04:38:01;;;;;;;8.15;5.40;;;16.20;80.90;;;;;;5047032;28;20037;-44
2021/08/31 04:40:45;;;;;;;10.38;5.60;;;16.10;81.00;;;;;;5046832;28;20033;-45
2021/08/31 04:43:30;;;;;;;9.80;5.65;;;16.10;80.90;;;;;;5046667;28;20095;-46
2021/08/31 04:46:14;;;;;;;8.57;5.57;;;16.10;80.60;;;;;;5046793;28;20120;-44
2021/08/31 04:48:58;;;;;;;7.80;5.07;;;16.10;80.40;;;;;;5046851;28;20080;-45
2021/08/31 04:51:43;;;;;;;7.53;5.32;;;16.10;80.50;;;;;;5046740;28;20067;-48
2021/08/31 04:54:27;;;;;;;9.40;5.90;;;16.10;80.50;;;;;;5046266;28;20112;-44
2021/08/31 04:57:11;;;;;;;8.40;5.28;;;16.10;80.70;;;;;;5046850;28;20136;-44
2021/08/31 04:59:55;;;;;;;8.32;5.47;;;16.10;80.70;;;;;;5046738;28;20321;-44
2021/08/31 05:02:40;;;;;;;8.00;5.32;;;16.10;80.80;;;;;;5046734;28;20036;-43
2021/08/31 05:05:24;;;;;;;8.93;5.47;;;16.10;80.80;;;;;;5047007;28;20148;-45
2021/08/31 05:08:08;;;;;;;10.73;5.82;;;16.10;80.80;;;;;;5046588;28;20212;-44
2021/08/31 05:10:53;;;;;;;10.38;5.90;;;16.10;80.80;;;;;;5046244;28;20084;-45
2021/08/31 05:13:40;;;;;;;9.93;5.63;;;16.10;80.80;;;;;;5046376;28;20076;-45
2021/08/31 05:16:24;;;;;;;9.23;5.68;;;16.10;80.90;;;;;;5046362;28;20079;-45
2021/08/31 05:19:09;;;;;;;9.90;5.75;;;16.20;80.90;;;;;;5046224;28;20370;-45
2021/08/31 05:21:53;;;;;;;7.97;5.55;;;16.20;80.90;;;;;;5046783;28;20025;-44
2021/08/31 05:24:38;;;;;;;7.60;5.78;;;16.10;80.80;;;;;;5045856;28;20268;-45
2021/08/31 05:27:23;;;;;;;10.50;5.80;;;16.10;80.80;;;;;;5045766;28;20397;-44
2021/08/31 05:30:07;;;;;;;7.72;5.55;;;16.20;80.90;;;;;;5045346;28;20060;-45
2021/08/31 05:32:51;;;;;;;9.73;6.43;;;16.20;80.80;;;;;;5045787;28;20064;-44
2021/08/31 05:35:36;;;;;;;8.70;5.53;;;16.10;80.90;;;;;;5045728;28;20087;-44
2021/08/31 05:38:20;;;;;;;8.88;5.93;;;16.10;81.00;;;;;;5045700;28;20101;-45
2021/08/31 05:41:04;;;;;;;7.90;5.75;;;16.10;81.00;;;;;;5045973;28;20213;-45
2021/08/31 05:43:49;;;;;;;9.18;6.28;;;16.10;81.00;;;;;;5045891;28;20063;-44
2021/08/31 05:46:33;;;;;;;9.25;5.85;;;16.10;81.10;;;;;;5045515;28;20041;-44
2021/08/31 05:49:17;;;;;;;11.07;6.20;;;16.10;81.10;;;;;;5045409;28;20310;-48
2021/08/31 05:52:02;;;;;;;8.90;5.65;;;16.20;81.10;;;;;;5045499;28;20075;-44
2021/08/31 05:54:46;;;;;;;9.48;5.95;;;16.10;81.10;;;;;;5045309;28;20028;-45
2021/08/31 05:57:31;;;;;;;8.40;5.82;;;16.20;81.30;;;;;;5046171;28;20028;-45
2021/08/31 06:00:15;;;;;;;7.90;5.30;;;16.10;81.10;;;;;;5045295;28;20024;-43
2021/08/31 06:02:59;;;;;;;9.57;6.10;;;16.10;81.20;;;;;;5045638;28;20067;-45
2021/08/31 06:05:43;;;;;;;10.60;6.35;;;16.10;81.30;;;;;;5045187;28;20036;-44
2021/08/31 06:08:31;;;;;;;9.93;5.78;;;16.20;81.30;;;;;;5045631;28;20340;-46
2021/08/31 06:11:18;;;;;;;8.10;5.88;;;16.20;81.30;;;;;;5045479;28;20067;-45
2021/08/31 06:14:02;;;;;;;9.30;6.15;;;16.20;81.30;;;;;;5045261;28;20109;-45
2021/08/31 06:16:46;;;;;;;10.50;6.15;;;16.20;81.30;;;;;;5045160;28;20256;-46
2021/08/31 06:19:30;;;;;;;7.70;5.70;;;16.20;81.40;;;;;;5045156;28;20400;-44
2021/08/31 06:22:15;;;;;;;8.82;6.13;;;16.20;81.40;;;;;;5045076;28;20066;-44
2021/08/31 06:24:59;;;;;;;8.93;6.45;;;16.20;81.60;;;;;;5044759;28;20097;-45
2021/08/31 06:27:43;;;;;;;10.63;7.25;;;16.20;81.60;;;;;;5043865;28;20036;-46
2021/08/31 06:30:28;;;;;;;13.02;6.95;;;16.20;81.60;;;;;;5044604;28;20136;-45
2021/08/31 06:33:12;;;;;;;10.52;7.35;;;16.30;81.70;;;;;;5044851;28;20064;-45
2021/08/31 06:35:56;;;;;;;10.93;6.85;;;16.30;81.60;;;;;;5044563;28;20165;-46
2021/08/31 06:38:40;;;;;;;10.20;6.43;;;16.30;81.60;;;;;;5044667;28;20036;-46
2021/08/31 06:41:25;;;;;;;10.75;6.43;;;16.30;81.50;;;;;;5044493;28;20354;-44
2021/08/31 06:44:09;;;;;;;10.25;6.43;;;16.30;81.40;;;;;;5043468;28;20033;-44
2021/08/31 06:46:53;;;;;;;12.40;6.88;;;16.30;81.50;;;;;;5044380;28;20036;-46
2021/08/31 06:49:38;;;;;;;11.45;6.47;;;16.30;81.40;;;;;;5044326;28;20089;-46
2021/08/31 06:52:22;;;;;;;12.73;6.65;;;16.30;81.50;;;;;;5044408;28;20075;-45
2021/08/31 06:55:07;;;;;;;9.40;6.35;;;16.30;81.30;;;;;;5044191;28;20354;-46
2021/08/31 06:57:51;;;;;;;9.57;6.47;;;16.30;81.30;;;;;;5044189;28;20033;-44
2021/08/31 07:00:35;;;;;;;10.43;7.05;;;16.30;81.40;;;;;;5044154;28;20025;-44
2021/08/31 07:03:20;;;;;;;8.15;5.82;;;16.30;81.50;;;;;;5043924;28;20342;-46
2021/08/31 07:06:04;;;;;;;12.30;7.05;;;16.30;81.50;;;;;;5044336;28;20036;-45
2021/08/31 07:08:48;;;;;;;7.93;5.95;;;16.30;81.70;;;;;;5044106;28;20288;-44
2021/08/31 07:11:32;;;;;;;12.57;7.25;;;16.40;81.60;;;;;;5044504;28;20036;-44
2021/08/31 07:14:17;;;;;;;9.68;6.97;;;16.30;81.70;;;;;;5043964;28;20112;-44
2021/08/31 07:17:01;;;;;;;10.68;6.25;;;16.30;81.60;;;;;;5043914;28;20279;-46
2021/08/31 07:19:47;;;;;;;10.15;6.55;;;16.40;81.60;;;;;;5044142;28;20095;-46
2021/08/31 07:22:31;;;;;;;9.88;5.97;;;16.40;81.50;;;;;;5043835;28;20056;-44
2021/08/31 07:25:15;;;;;;;9.40;6.18;;;16.40;81.50;;;;;;5043900;28;20099;-44
2021/08/31 07:27:59;;;;;;;8.75;5.53;;;16.30;81.70;;;;;;5043709;28;20033;-46
2021/08/31 07:30:44;;;;;;;10.00;6.30;;;16.40;81.70;;;;;;5043770;28;20256;-44
2021/08/31 07:33:28;;;;;;;9.50;6.03;;;16.40;81.80;;;;;;5043532;28;20124;-46
2021/08/31 07:36:12;;;;;;;6.82;4.80;;;16.40;81.90;;;;;;5044071;28;20371;-48
2021/08/31 07:38:57;;;;;;;7.35;5.05;;;16.40;81.90;;;;;;5043656;28;20051;-46
2021/08/31 07:41:41;;;;;;;7.20;5.18;;;16.40;81.90;;;;;;5043713;28;20344;-44
2021/08/31 07:44:25;;;;;;;7.85;4.82;;;16.40;81.90;;;;;;5043962;28;20037;-46
2021/08/31 07:47:09;;;;;;;9.13;4.40;;;16.40;82.10;;;;;;5043885;28;20068;-46
2021/08/31 07:49:54;;;;;;;7.32;4.80;;;16.50;82.30;;;;;;5043969;28;20375;-44
2021/08/31 07:52:38;;;;;;;7.82;5.22;;;16.50;82.30;;;;;;5043744;28;20029;-44
2021/08/31 07:55:22;;;;;;;8.50;5.22;;;16.60;82.40;;;;;;5043968;28;20391;-46
2021/08/31 07:58:07;;;;;;;11.60;5.45;;;16.60;82.50;;;;;;5043518;28;20041;-46
2021/08/31 08:00:51;;;;;;;10.23;5.63;;;16.60;82.50;;;;;;5043376;28;20029;-46
2021/08/31 08:03:35;;;;;;;8.13;5.53;;;16.60;82.40;;;;;;5046540;28;20036;-45
2021/08/31 08:06:19;;;;;;;9.20;5.90;;;16.60;82.30;;;;;;5047337;28;20029;-44
2021/08/31 08:09:04;;;;;;;9.98;5.80;;;16.60;82.20;;;;;;5047848;28;20020;-44
2021/08/31 08:11:48;;;;;;;10.18;6.05;;;16.60;82.20;;;;;;5047373;28;20109;-45
2021/08/31 08:14:32;;;;;;;10.60;6.40;;;16.60;82.20;;;;;;5047712;28;20105;-44
2021/08/31 08:17:20;;;;;;;12.15;5.95;;;16.60;82.10;;;;;;5047588;28;20090;-44
2021/08/31 08:20:08;;;;;;;8.82;6.55;;;16.60;82.00;;;;;;5046601;28;20033;-45
2021/08/31 08:22:52;;;;;;;10.02;6.65;;;16.60;81.90;;;;;;5047362;28;20068;-45
2021/08/31 08:25:36;;;;;;;10.68;7.20;;;16.70;81.80;;;;;;5047124;28;20044;-44
2021/08/31 08:28:21;;;;;;;8.65;5.93;;;16.60;81.80;;;;;;5047218;28;20209;-46
2021/08/31 08:31:06;;;;;;;7.55;5.60;;;16.60;81.90;;;;;;5047088;28;20041;-43
2021/08/31 08:33:50;;;;;;;7.53;5.40;;;16.60;81.90;;;;;;5046862;28;20052;-44
2021/08/31 08:36:34;;;;;;;6.80;5.13;;;16.60;81.80;;;;;;5046666;28;20094;-44
2021/08/31 08:39:18;;;;;;;8.80;5.47;;;16.60;81.70;;;;;;5046745;28;20056;-44
2021/08/31 08:42:05;;;;;;;11.80;6.15;;;16.60;81.90;;;;;;5047142;28;20019;-44
2021/08/31 08:44:49;;;;;;;9.93;6.45;;;16.60;82.00;;;;;;5046690;28;20055;-45
2021/08/31 08:47:33;;;;;;;8.70;6.70;;;16.60;82.10;;;;;;5046233;28;20032;-44
2021/08/31 08:50:17;;;;;;;13.07;6.63;;;16.70;82.20;;;;;;5047024;28;20031;-47
2021/08/31 08:53:03;;;;;;;10.38;7.15;;;16.70;82.20;;;;;;5046502;28;20032;-46
2021/08/31 08:55:48;;;;;;;13.10;8.05;;;16.80;82.20;;;;;;5045469;28;20087;-44
2021/08/31 08:58:32;;;;;;;10.02;7.20;;;16.80;82.20;;;;;;5046469;28;20390;-45
2021/08/31 09:01:16;;;;;;;12.13;7.68;;;16.80;82.20;;;;;;5046547;28;20087;-44
2021/08/31 09:04:01;;;;;;;11.60;7.05;;;16.80;82.20;;;;;;5046258;28;20040;-44
2021/08/31 09:06:45;;;;;;;12.23;7.50;;;16.80;82.20;;;;;;5046228;28;20084;-43
2021/08/31 09:09:29;;;;;;;10.07;7.47;;;16.80;82.20;;;;;;5046289;28;20056;-44
2021/08/31 09:12:30;;;;;;;11.23;7.20;;;16.80;82.10;;;;;;5046121;28;20220;-45
2021/08/31 09:15:35;;;;;;;10.77;6.97;;;16.80;82.20;;;;;;5044864;28;20076;-45
2021/08/31 09:18:19;;;;;;;11.02;7.63;;;16.80;82.20;;;;;;5046012;28;20044;-47
2021/08/31 09:21:04;;;;;;;8.77;6.70;;;16.90;82.00;;;;;;5045910;28;20044;-44
2021/08/31 09:23:49;;;;;;;11.43;7.38;;;17.00;82.00;;;;;;5046002;28;20036;-45
2021/08/31 09:26:39;;;;;;;9.52;7.20;;;17.10;82.00;;;;;;5046474;28;20093;-43
2021/08/31 09:29:24;;;;;;;11.70;7.60;;;17.20;82.30;;;;;;5046357;28;20112;-44
2021/08/31 09:32:09;;;;;;;12.63;7.10;;;17.20;82.50;;;;;;5045858;28;20139;-44
2021/08/31 09:34:53;;;;;;;9.88;7.00;;;17.20;82.40;;;;;;5045670;28;20140;-45
2021/08/31 09:37:38;;;;;;;13.07;6.97;;;17.30;82.50;;;;;;5045980;28;20032;-44
2021/08/31 09:40:27;;;;;;;9.70;6.55;;;17.30;82.40;;;;;;5045918;28;20034;-44
2021/08/31 09:43:16;;;;;;;11.35;6.80;;;17.30;82.20;;;;;;5045738;28;20064;-45
2021/08/31 09:46:01;;;;;;;9.25;6.43;;;17.30;82.10;;;;;;5045670;28;20108;-49
2021/08/31 09:48:45;;;;;;;8.63;6.22;;;17.40;82.00;;;;;;5045594;28;20027;-44
2021/08/31 09:51:29;;;;;;;10.02;6.30;;;17.40;81.90;;;;;;5045468;28;20033;-43
2021/08/31 09:54:21;;;;;;;11.25;6.47;;;17.30;81.70;;;;;;5045412;28;20029;-44
2021/08/31 09:57:27;;;;;;;10.27;5.57;;;17.40;81.70;;;;;;5045907;28;20029;-44
2021/08/31 10:00:15;;;;;;;8.48;6.00;;;17.40;81.20;;;;;;5045324;28;20041;-46
2021/08/31 10:03:02;;;;;;;10.05;6.10;;;17.40;81.50;;;;;;5045898;28;20032;-44
2021/08/31 10:05:47;;;;;;;8.93;6.32;;;17.50;81.50;;;;;;5045400;28;20071;-45
2021/08/31 10:08:33;;;;;;;9.43;5.93;;;17.60;81.50;;;;;;5045661;28;20036;-46
2021/08/31 10:11:17;;;;;;;8.77;6.65;;;17.70;81.30;;;;;;5045709;28;20032;-45
2021/08/31 10:14:02;;;;;;;10.90;6.60;;;17.70;80.80;;;;;;5045513;28;20088;-48
2021/08/31 10:16:46;;;;;;;9.38;6.57;;;17.80;80.90;;;;;;5030376;28;20071;-45
2021/08/31 10:19:30;;;;;;;8.98;6.43;;;17.80;81.30;;;;;;5044424;28;20053;-44
2021/08/31 10:22:15;;;;;;;8.55;6.10;;;18.00;81.60;;;;;;5045106;28;20087;-44
2021/08/31 10:24:59;;;;;;;10.98;6.05;;;18.10;81.80;;;;;;5043525;28;20036;-46
2021/08/31 10:27:44;;;;;;;7.95;5.60;;;18.20;81.30;;;;;;5045349;28;20288;-44
2021/08/31 10:30:30;;;;;;;9.48;5.80;;;18.30;80.90;;;;;;5044707;28;20056;-45
2021/08/31 10:33:36;;;;;;;8.13;5.80;;;18.30;80.70;;;;;;5044703;28;20044;-45
2021/08/31 10:36:36;;;;;;;7.28;5.03;;;18.50;81.30;;;;;;5044559;28;20032;-45
2021/08/31 10:39:20;;;;;;;6.32;4.72;;;18.60;80.50;;;;;;5043708;28;20032;-46
2021/08/31 10:42:06;;;;;;;6.97;5.35;;;18.50;80.30;;;;;;5030339;28;20064;-47
2021/08/31 10:44:51;;;;;;;6.80;4.32;;;18.50;80.10;;;;;;5029941;28;20042;-47
2021/08/31 10:47:37;;;;;;;7.97;4.43;;;18.40;79.60;;;;;;5043605;28;20040;-44
2021/08/31 10:50:29;;;;;;;6.18;4.47;;;18.40;79.20;;;;;;5045130;28;20198;-47
2021/08/31 10:53:18;;;;;;;8.25;4.20;;;18.40;79.00;;;;;;5044693;28;20105;-47
2021/08/31 10:56:25;;;;;;;6.10;4.55;;;18.30;79.10;;;;;;5030052;28;20135;-45
2021/08/31 10:59:30;;;;;;;6.20;4.35;;;18.30;78.50;;;;;;5044789;28;20079;-45
2021/08/31 11:02:50;;;;;;;6.22;4.28;;;18.40;79.20;;;;;;5043765;28;20078;-46
2021/08/31 11:05:34;;;;;;;6.65;4.07;;;18.50;78.60;;;;;;5044600;28;20052;-45
2021/08/31 11:08:18;;;;;;;7.35;4.32;;;18.40;78.50;;;;;;5044497;28;20221;-45
2021/08/31 11:11:03;;;;;;;5.82;3.85;;;18.40;78.40;;;;;;5044316;28;20036;-47
2021/08/31 11:13:56;;;;;;;9.05;4.20;;;18.40;78.10;;;;;;5043908;28;20344;-45
2021/08/31 11:16:41;;;;;;;7.32;4.60;;;18.30;78.00;;;;;;5043878;28;20032;-45
2021/08/31 11:19:28;;;;;;;5.78;3.97;;;18.30;77.80;;;;;;5043842;28;20127;-46
2021/08/31 11:22:12;;;;;;;7.18;3.60;;;18.30;77.20;;;;;;5043781;28;20363;-45
2021/08/31 11:24:57;;;;;;;5.95;3.92;;;18.20;77.10;;;;;;5043562;28;20117;-45
2021/08/31 11:27:52;;;;;;;5.40;3.92;;;18.20;76.90;;;;;;5043666;28;20032;-45
2021/08/31 11:30:51;;;;;;;7.40;4.00;;;18.20;77.20;;;;;;5043654;28;20099;-45
2021/08/31 11:33:40;;;;;;;6.15;4.00;;;18.20;76.80;;;;;;5043564;28;20047;-45
2021/08/31 11:36:25;;;;;;;6.63;4.15;;;18.20;76.80;;;;;;5043198;28;20071;-47
2021/08/31 11:39:12;;;;;;;7.45;4.35;;;18.20;77.10;;;;;;5044007;28;20028;-45
2021/08/31 11:41:56;;;;;;;6.68;4.57;;;18.10;76.80;;;;;;5042783;28;20041;-45
2021/08/31 11:44:55;;;;;;;6.25;4.45;;;18.10;77.00;;;;;;5043631;28;20347;-46
2021/08/31 11:47:39;;;;;;;7.18;4.15;;;18.20;76.80;;;;;;5043524;28;20075;-46
2021/08/31 11:50:24;;;;;;;7.28;4.28;;;18.10;77.00;;;;;;5044053;28;20037;-45
2021/08/31 11:53:19;;;;;;;6.20;4.20;;;18.10;76.80;;;;;;5043863;28;20048;-46
2021/08/31 11:56:05;;;;;;;6.50;4.38;;;18.00;76.30;;;;;;5043798;28;20205;-45
2021/08/31 11:58:49;;;;;;;8.73;4.32;;;18.00;76.00;;;;;;5043590;28;20029;-45
2021/08/31 12:01:34;;;;;;;8.80;4.22;;;18.00;76.00;;;;;;5043706;28;20093;-46
2021/08/31 12:04:19;;;;;;;6.13;3.80;;;18.10;75.70;;;;;;5043298;28;20075;-45
2021/08/31 12:07:04;;;;;;;8.15;4.07;;;18.00;74.80;;;;;;5043173;28;20041;-46
2021/08/31 12:09:48;;;;;;;7.68;4.30;;;18.10;75.10;;;;;;5042236;28;20028;-46
2021/08/31 12:12:33;;;;;;;5.85;4.03;;;18.10;75.90;;;;;;5043294;28;20055;-45
2021/08/31 12:15:23;;;;;;;6.03;3.92;;;18.20;76.30;;;;;;5042302;28;20079;-46
2021/08/31 12:18:08;;;;;;;5.63;3.97;;;18.20;76.20;;;;;;5029049;28;20024;-47
2021/08/31 12:20:53;;;;;;;7.78;3.92;;;18.30;76.40;;;;;;5043738;28;20036;-47
2021/08/31 12:23:37;;;;;;;5.53;3.97;;;18.30;76.30;;;;;;5042736;28;20205;-47
2021/08/31 12:26:35;;;;;;;5.28;3.63;;;18.30;75.60;;;;;;5043810;28;20247;-45
2021/08/31 12:29:19;;;;;;;5.70;3.80;;;18.50;75.50;;;;;;5043660;28;20097;-46
2021/08/31 12:32:04;;;;;;;8.70;3.50;;;18.60;75.60;;;;;;5042307;28;20331;-46
2021/08/31 12:34:49;;;;;;;7.10;4.18;;;18.60;75.20;;;;;;5043444;28;20040;-46
2021/08/31 12:37:35;;;;;;;5.38;3.83;;;18.70;74.60;;;;;;5043331;28;20060;-46
2021/08/31 12:40:20;;;;;;;5.25;3.70;;;18.80;74.20;;;;;;5043208;28;20079;-45
2021/08/31 12:43:10;;;;;;;7.85;4.32;;;18.70;72.30;;;;;;5043018;28;20041;-45
2021/08/31 12:45:59;;;;;;;6.72;3.78;;;18.80;71.30;;;;;;5028312;28;20032;-48
2021/08/31 12:48:45;;;;;;;9.27;4.00;;;18.80;71.20;;;;;;5044581;28;20201;-46
2021/08/31 12:51:35;;;;;;;6.22;4.10;;;18.80;71.70;;;;;;5045681;28;20336;-46
2021/08/31 12:54:23;;;;;;;5.90;3.97;;;18.80;71.90;;;;;;5046480;28;20252;-46
2021/08/31 12:57:08;;;;;;;6.10;3.97;;;18.80;72.30;;;;;;5046977;28;20060;-46
2021/08/31 12:59:53;;;;;;;7.63;4.00;;;18.90;71.70;;;;;;5046461;28;20044;-45
2021/08/31 13:02:37;;;;;;;5.97;4.10;;;19.00;69.30;;;;;;5045442;28;20136;-48
2021/08/31 13:05:21;;;;;;;7.30;4.25;;;19.10;70.60;;;;;;5046950;28;20032;-46
2021/08/31 13:08:06;;;;;;;6.95;3.47;;;19.10;71.10;;;;;;5045788;28;20221;-46
2021/08/31 13:10:50;;;;;;;7.43;3.53;;;19.20;70.40;;;;;;5045391;28;20049;-48
2021/08/31 13:13:34;;;;;;;5.65;4.05;;;19.30;70.40;;;;;;5046405;28;20033;-47
2021/08/31 13:16:19;;;;;;;6.03;3.63;;;19.40;71.00;;;;;;5046581;28;20028;-46
2021/08/31 13:19:03;;;;;;;6.72;3.47;;;19.50;69.60;;;;;;5046195;28;20222;-45
2021/08/31 13:21:48;;;;;;;6.60;3.53;;;19.70;69.80;;;;;;5046169;28;20257;-45
2021/08/31 13:24:32;;;;;;;7.63;3.72;;;19.80;70.00;;;;;;5046024;28;20356;-45
2021/08/31 13:27:17;;;;;;;8.57;4.15;;;19.90;71.10;;;;;;5046086;28;20059;-46
2021/08/31 13:30:01;;;;;;;6.47;3.95;;;19.90;70.40;;;;;;5046464;28;20071;-47
2021/08/31 13:32:45;;;;;;;8.77;4.20;;;20.00;69.60;;;;;;5045825;28;20049;-45
2021/08/31 13:35:29;;;;;;;5.63;3.67;;;19.90;68.80;;;;;;5046327;28;20032;-46
2021/08/31 13:38:14;;;;;;;6.22;3.60;;;19.90;69.40;;;;;;5045871;28;20036;-45
2021/08/31 13:40:58;;;;;;;6.43;4.15;;;19.80;69.00;;;;;;5045827;28;20068;-47
2021/08/31 13:43:42;;;;;;;4.85;3.50;;;19.80;68.10;;;;;;5045598;28;20225;-46
2021/08/31 13:46:27;;;;;;;4.95;3.72;;;19.80;66.50;;;;;;5045849;28;20071;-45
2021/08/31 13:49:14;;;;;;;7.32;3.50;;;19.80;67.40;;;;;;5045569;28;20032;-45
2021/08/31 13:51:58;;;;;;;6.03;4.03;;;19.70;68.10;;;;;;5045659;28;20128;-46
2021/08/31 13:54:43;;;;;;;5.65;3.80;;;19.80;68.90;;;;;;5045682;28;20337;-45
2021/08/31 13:57:29;;;;;;;7.18;3.70;;;19.80;69.10;;;;;;5045342;28;20032;-46
2021/08/31 14:00:14;;;;;;;5.88;4.03;;;19.80;68.60;;;;;;5044609;28;20067;-45
2021/08/31 14:02:58;;;;;;;4.82;3.38;;;19.80;68.30;;;;;;5044928;28;20101;-46
2021/08/31 14:05:42;;;;;;;5.57;3.47;;;19.80;68.50;;;;;;5044427;28;20109;-46
2021/08/31 14:08:26;;;;;;;5.28;2.95;;;19.80;67.50;;;;;;5045681;28;20091;-46
2021/08/31 14:11:11;;;;;;;5.47;3.40;;;19.90;66.60;;;;;;5045606;28;20069;-45
2021/08/31 14:13:55;;;;;;;5.82;3.28;;;19.90;67.70;;;;;;5045404;28;20041;-47
2021/08/31 14:16:40;;;;;;;6.05;3.10;;;20.00;67.00;;;;;;5045141;28;20068;-46
2021/08/31 14:19:24;;;;;;;4.55;3.20;;;20.00;66.30;;;;;;5044988;28;20231;-45